METAR AND TAF INFORMATION
METAR FOR EDDL
ADDS - METARS form results

(0857 UTC 27 June 2019)
Data provider http://aviationweather.gov/metar/data/
 
METAR text: EDDL 270850Z 35006KT 300V050 CAVOK 20/11 Q1028 NOSIG
Conditions at: EDDL (DUESSELDORF , DE) observed 0850 UTC 27 June 2019
Temperature: 20.0°C (68°F)
Dewpoint: 11.0°C (52°F) [RH = 56%]
Pressure (altimeter): 30.35 inches Hg (1028.0 mb)
Winds: from the N (350 degrees) at 7 MPH (6 knots; 3.1 m/s)
Visibility: 6 or more miles (10+ km)
Ceiling: ceiling and visibility are OK
Clouds: unknown
Weather: no significant weather observed at this time

METAR text: EDDL 270820Z 02007KT 330V080 9999 FEW020 19/11 Q1028 NOSIG
Conditions at: EDDL (DUESSELDORF , DE) observed 0820 UTC 27 June 2019
Temperature: 19.0°C (66°F)
Dewpoint: 11.0°C (52°F) [RH = 60%]
Pressure (altimeter): 30.35 inches Hg (1028.0 mb)
Winds: from the NNE (20 degrees) at 8 MPH (7 knots; 3.6 m/s)
Visibility: 6 or more miles (10+ km)
Ceiling: at least 12,000 feet AGL
Clouds: few clouds at 2000 feet AGL
Weather: no significant weather observed at this time

Forecast for: EDDL (DUESSELDORF , DE)
Text: TAF EDDL 270500Z 2706/2812 36008KT 9999 SCT020
Forecast period: 0600 UTC 27 June 2019 to 1200 UTC 28 June 2019
Forecast type: FROM: standard forecast or significant change
Winds: from the N (360 degrees) at 9 MPH (8 knots; 4.1 m/s)
Visibility: 6 or more miles 10+ km)
Ceiling: at least 12,000 feet AGL
Clouds: scattered clouds at 2000 feet AGL
Weather: no significant weather forecast for this period
Text: TEMPO 2706/2708 BKN014
Forecast period: 0600 to 0800 UTC 27 June 2019
Forecast type: TEMPORARY: The following changes expected for less than half the time period
Visibility: missing
Ceiling: 1400 feet AGL
Clouds: broken clouds at 1400 feet AGL
Weather: no significant weather forecast for this period

 AIRPORT MAP

 RUNWAY INFORMATION
Runway 05L Runway length 8858 ft Runway width 148 ft
Runway elevation 116 ft Runway displaced threshold 984 ft Runway heading 53
Runway 23R Runway length 8858 ft Runway width 148 ft
Runway elevation 124 ft Runway displaced threshold 984 ft Runway heading 233
Runway 05R Runway length 9842 ft Runway width 148 ft
Runway elevation 121 ft Runway displaced threshold 984 ft Runway heading 53
Runway 23L Runway length 9842 ft Runway width 148 ft
Runway elevation 138 ft Runway displaced threshold 984 ft Runway heading 233

 AIRPORT FREQUENCIES
Type ACC Name LANGEN RAD Frequency 128.55 MHZ
Type APP Name DIR Frequency 128.65 MHZ
Type ATIS Name ATIS Frequency 123.775 MHZ
Type CLD Name CLNC DEL Frequency 121.775 MHZ
Type GND Name GND Frequency 121.9 MHZ
Type INFO Name LANGEN INF Frequency 129.875 MHZ
Type MISC Name DE ICING Frequency 135.225 MHZ
Type TWR Name TWR Frequency 118.3 MHZ

 AIRPORT NEAR NAVIGATION AIDS
Type VOR-DME Name Dusseldorf Frequency 115150 KHZ



Powered by Virtual Airlines Manager [v2.6.2]

Impressum | Datenschutz